createdAt,value
2018-09-06T00:04:38.767Z,99.63
2018-09-06T00:07:07.297Z,101.43
2018-09-06T00:09:35.875Z,83.03
2018-09-06T00:12:04.342Z,95.50
2018-09-06T00:14:32.813Z,94.40
2018-09-06T00:17:01.277Z,93.30
2018-09-06T00:19:29.755Z,82.63
2018-09-06T00:21:58.263Z,86.10
2018-09-06T00:24:26.815Z,86.00
2018-09-06T00:26:55.358Z,89.83
2018-09-06T00:29:23.968Z,89.67
2018-09-06T00:31:52.438Z,96.60
2018-09-06T00:34:21.002Z,98.23
2018-09-06T00:36:49.475Z,107.27
2018-09-06T00:39:17.980Z,98.00
2018-09-06T00:41:46.481Z,108.03
2018-09-06T00:44:14.994Z,98.10
2018-09-06T00:46:43.495Z,100.17
2018-09-06T00:49:12.063Z,102.70
2018-09-06T00:51:40.529Z,100.30
2018-09-06T00:54:08.977Z,99.77
2018-09-06T00:56:37.503Z,98.97
2018-09-06T00:59:06.424Z,108.00
2018-09-06T01:01:34.944Z,97.37
2018-09-06T01:04:03.505Z,107.40
2018-09-06T01:06:32.034Z,97.30
2018-09-06T01:09:00.505Z,104.83
2018-09-06T01:11:29.001Z,90.17
2018-09-06T01:13:57.503Z,116.40
2018-09-06T01:16:26.045Z,93.13
2018-09-06T01:18:54.541Z,91.90
2018-09-06T01:21:23.048Z,96.00
2018-09-06T01:23:51.521Z,85.60
2018-09-06T01:26:20.005Z,89.63
2018-09-06T01:28:48.457Z,101.60
2018-09-06T01:31:16.941Z,109.77
2018-09-06T01:33:45.393Z,97.90
2018-09-06T01:36:19.104Z,102.37
2018-09-06T01:38:47.562Z,99.90
2018-09-06T01:41:16.067Z,108.50
2018-09-06T01:43:44.543Z,102.87
2018-09-06T01:46:13.029Z,101.70
2018-09-06T01:48:41.512Z,102.13
2018-09-06T01:51:09.965Z,103.63
2018-09-06T01:53:38.470Z,92.23
2018-09-06T01:56:07.062Z,99.20
2018-09-06T01:58:35.553Z,106.43
2018-09-06T02:01:04.037Z,97.53
2018-09-06T02:03:32.665Z,91.80
2018-09-06T02:06:01.140Z,91.67
2018-09-06T02:08:29.638Z,93.97
2018-09-06T02:10:58.130Z,91.83
2018-09-06T02:13:26.622Z,91.67
2018-09-06T02:15:55.125Z,75.73
2018-09-06T02:18:23.594Z,78.63
2018-09-06T02:20:52.177Z,82.37
2018-09-06T02:23:20.673Z,83.30
2018-09-06T02:25:49.157Z,87.13
2018-09-06T02:28:17.638Z,99.43
2018-09-06T02:30:46.125Z,84.17
2018-09-06T02:33:14.591Z,90.63
2018-09-06T02:35:43.067Z,102.47
2018-09-06T02:38:11.584Z,97.37
2018-09-06T02:40:40.694Z,111.73
2018-09-06T02:43:13.353Z,97.23
2018-09-06T02:45:43.215Z,83.37
2018-09-06T02:48:11.695Z,83.10
2018-09-06T02:50:45.569Z,92.50
2018-09-06T02:53:14.212Z,90.13
2018-09-06T02:55:43.081Z,94.43
2018-09-06T02:58:11.591Z,87.90
2018-09-06T03:00:40.111Z,91.07
2018-09-06T03:03:08.666Z,83.00
2018-09-06T03:05:37.108Z,80.10
2018-09-06T03:08:05.646Z,96.10
2018-09-06T03:10:42.524Z,84.87
2018-09-06T03:13:11.031Z,88.63
2018-09-06T03:15:39.549Z,92.20
2018-09-06T03:18:08.021Z,101.57
2018-09-06T03:20:36.828Z,96.67
2018-09-06T03:23:06.069Z,95.80
2018-09-06T03:25:34.806Z,97.80
2018-09-06T03:28:03.627Z,93.57
2018-09-06T03:30:32.111Z,89.40
2018-09-06T03:33:00.601Z,87.03
2018-09-06T03:35:29.053Z,106.63
2018-09-06T03:37:57.590Z,104.20
2018-09-06T03:40:26.046Z,95.33
2018-09-06T03:42:55.230Z,98.00
2018-09-06T03:45:23.806Z,94.40
2018-09-06T03:47:52.309Z,90.37
2018-09-06T03:50:20.797Z,91.10
2018-09-06T03:52:49.255Z,90.10
2018-09-06T03:55:17.774Z,91.50
2018-09-06T03:57:46.284Z,82.53
2018-09-06T04:00:14.900Z,81.33
2018-09-06T04:02:43.353Z,83.93
2018-09-06T04:05:11.881Z,77.83
2018-09-06T04:07:40.326Z,78.50
2018-09-06T04:10:08.855Z,80.43
2018-09-06T04:12:37.322Z,78.00
2018-09-06T04:15:05.882Z,82.70
2018-09-06T04:17:34.352Z,79.60
2018-09-06T04:20:02.875Z,74.90
2018-09-06T04:22:31.321Z,73.27
2018-09-06T04:24:59.798Z,78.40
2018-09-06T04:27:28.276Z,79.40
2018-09-06T04:29:56.755Z,81.60
2018-09-06T04:32:25.239Z,78.83
2018-09-06T04:35:00.183Z,81.23
2018-09-06T04:37:28.627Z,77.60
2018-09-06T04:39:57.091Z,76.20
2018-09-06T04:42:25.533Z,92.67
2018-09-06T04:44:54.205Z,86.40
2018-09-06T04:47:22.671Z,85.87
2018-09-06T04:49:51.093Z,80.20
2018-09-06T04:52:19.595Z,82.73
2018-09-06T04:54:48.057Z,83.87
2018-09-06T04:57:16.500Z,81.27
2018-09-06T04:59:44.962Z,74.90
2018-09-06T05:02:13.545Z,82.27
2018-09-06T05:04:42.079Z,74.10
2018-09-06T05:07:10.558Z,70.20
2018-09-06T05:09:39.033Z,84.47
2018-09-06T05:12:07.529Z,74.90
2018-09-06T05:14:36.999Z,78.90
2018-09-06T05:17:05.526Z,65.90
2018-09-06T05:19:34.073Z,71.73
2018-09-06T05:22:02.576Z,71.87
2018-09-06T05:24:31.260Z,67.50
2018-09-06T05:26:59.753Z,73.53
2018-09-06T05:29:28.209Z,73.20
2018-09-06T05:31:56.651Z,73.53
2018-09-06T05:34:25.149Z,67.77
2018-09-06T05:36:53.638Z,76.30
2018-09-06T05:39:22.153Z,72.20
2018-09-06T05:41:50.622Z,72.03
2018-09-06T05:44:19.142Z,65.87
2018-09-06T05:46:47.690Z,71.03
2018-09-06T05:49:17.021Z,70.73
2018-09-06T05:51:45.503Z,72.10
2018-09-06T05:54:13.974Z,73.00
2018-09-06T05:56:42.437Z,73.23
2018-09-06T05:59:10.872Z,74.47
2018-09-06T06:01:39.341Z,75.37
2018-09-06T06:04:07.826Z,69.80
2018-09-06T06:06:36.361Z,77.17
2018-09-06T06:09:07.271Z,69.93
2018-09-06T06:11:35.750Z,70.07
2018-09-06T06:14:04.253Z,71.83
2018-09-06T06:16:33.671Z,75.77
2018-09-06T06:19:02.146Z,79.20
2018-09-06T06:21:30.597Z,78.83
2018-09-06T06:23:59.075Z,82.33
2018-09-06T06:26:27.555Z,88.00
2018-09-06T06:28:56.036Z,90.47
2018-09-06T06:31:24.491Z,96.43
2018-09-06T06:33:52.980Z,88.77
2018-09-06T06:36:21.426Z,96.43
2018-09-06T06:38:49.949Z,97.50
2018-09-06T06:41:49.944Z,101.33
2018-09-06T06:44:18.480Z,92.93
2018-09-06T06:46:46.970Z,106.23
2018-09-06T06:49:15.873Z,96.77
2018-09-06T06:51:44.372Z,99.20
2018-09-06T06:54:12.913Z,92.93
2018-09-06T06:56:41.416Z,95.97
2018-09-06T06:59:09.930Z,98.13
2018-09-06T07:01:38.572Z,95.87
2018-09-06T07:04:07.160Z,97.73
2018-09-06T07:06:35.725Z,90.03
2018-09-06T07:09:06.489Z,94.30
2018-09-06T07:11:34.981Z,90.40
2018-09-06T07:14:03.478Z,90.67
2018-09-06T07:16:31.995Z,93.90
2018-09-06T07:19:00.491Z,83.33
2018-09-06T07:21:29.375Z,86.93
2018-09-06T07:23:58.277Z,89.67
2018-09-06T07:26:26.854Z,83.53
2018-09-06T07:28:55.327Z,91.00
2018-09-06T07:31:23.916Z,80.10
2018-09-06T07:33:52.834Z,81.63
2018-09-06T07:36:21.730Z,77.10
2018-09-06T07:38:50.266Z,79.77
2018-09-06T07:41:19.033Z,82.57
2018-09-06T07:43:47.582Z,82.07
2018-09-06T07:46:16.125Z,84.00
2018-09-06T07:48:44.610Z,78.07
2018-09-06T07:51:13.113Z,82.07
2018-09-06T07:53:41.645Z,78.37
2018-09-06T07:56:10.149Z,88.03
2018-09-06T07:58:38.755Z,80.90
2018-09-06T08:01:07.430Z,83.97
2018-09-06T08:03:35.977Z,89.10
2018-09-06T08:06:04.469Z,74.97
2018-09-06T08:08:33.089Z,74.90
2018-09-06T08:11:01.606Z,73.77
2018-09-06T08:13:30.273Z,82.50
2018-09-06T08:15:58.905Z,89.83
2018-09-06T08:18:27.442Z,83.30
2018-09-06T08:20:55.995Z,82.07
2018-09-06T08:23:24.514Z,92.77
2018-09-06T08:25:53.049Z,81.47
2018-09-06T08:28:21.730Z,98.20
2018-09-06T08:30:50.273Z,89.67
2018-09-06T08:33:18.949Z,82.27
2018-09-06T08:35:47.654Z,77.30
2018-09-06T08:38:16.175Z,78.57
2018-09-06T08:43:35.225Z,85.80
2018-09-06T08:46:03.761Z,73.33
2018-09-06T08:48:32.266Z,67.33
2018-09-06T08:51:00.786Z,66.07
2018-09-06T08:53:29.384Z,68.60
2018-09-06T08:55:57.880Z,61.57
2018-09-06T08:58:26.495Z,72.80
2018-09-06T09:01:00.361Z,68.87
2018-09-06T09:03:29.150Z,68.13
2018-09-06T09:05:57.684Z,68.43
2018-09-06T09:08:26.210Z,73.27
2018-09-06T09:10:54.709Z,70.57
2018-09-06T09:13:23.323Z,67.67
2018-09-06T09:15:51.912Z,70.97
2018-09-06T09:18:20.504Z,70.30
2018-09-06T09:20:48.977Z,78.20
2018-09-06T09:23:17.501Z,69.37
2018-09-06T09:25:46.087Z,77.83
2018-09-06T09:28:14.669Z,80.67
2018-09-06T09:30:43.352Z,78.30
2018-09-06T09:33:11.949Z,83.33
2018-09-06T09:35:40.508Z,81.80
2018-09-06T09:38:09.349Z,79.30
2018-09-06T09:40:37.925Z,77.00
2018-09-06T09:43:06.971Z,79.90
2018-09-06T09:45:35.490Z,80.57
2018-09-06T09:48:04.102Z,97.77
2018-09-06T09:53:00.530Z,104.43
2018-09-06T09:55:29.033Z,93.40
2018-09-06T09:57:57.688Z,85.10
2018-09-06T10:00:31.402Z,97.67
2018-09-06T10:03:05.162Z,96.00
2018-09-06T10:05:39.123Z,94.50
2018-09-06T10:08:12.898Z,89.03
2018-09-06T10:10:41.729Z,79.60
2018-09-06T10:13:10.739Z,92.23
2018-09-06T10:15:39.817Z,94.47
2018-09-06T10:18:08.614Z,87.27
2018-09-06T10:20:37.151Z,78.53
2018-09-06T10:23:05.970Z,100.60
2018-09-06T10:25:34.586Z,85.27
2018-09-06T10:28:03.360Z,92.67
2018-09-06T10:30:31.913Z,102.03
2018-09-06T10:33:00.578Z,107.57
2018-09-06T10:35:29.180Z,92.77
2018-09-06T10:37:57.841Z,99.00
2018-09-06T10:40:26.463Z,87.53
2018-09-06T10:42:55.165Z,82.97
2018-09-06T10:45:23.692Z,75.67
2018-09-06T10:47:52.262Z,75.50
2018-09-06T10:50:20.773Z,81.67
2018-09-06T10:52:49.317Z,80.87
2018-09-06T10:55:17.782Z,73.07
2018-09-06T10:57:46.304Z,74.07
2018-09-06T11:00:14.781Z,60.90
2018-09-06T11:02:43.672Z,67.53
2018-09-06T11:05:12.154Z,63.27
2018-09-06T11:07:40.668Z,57.37
2018-09-06T11:10:09.173Z,61.43
2018-09-06T11:12:37.697Z,62.20
2018-09-06T11:15:06.264Z,61.73
2018-09-06T11:17:34.801Z,59.27
2018-09-06T11:20:04.177Z,63.93
2018-09-06T11:22:33.065Z,63.27
2018-09-06T11:25:01.425Z,53.50
2018-09-06T11:27:29.898Z,55.43
2018-09-06T11:29:58.454Z,51.83
2018-09-06T11:32:27.063Z,47.13
2018-09-06T11:34:55.606Z,59.70
2018-09-06T11:37:24.125Z,55.87
2018-09-06T11:39:52.831Z,52.27
2018-09-06T11:42:21.338Z,52.17
2018-09-06T11:44:49.878Z,51.27
2018-09-06T11:47:18.491Z,48.43
2018-09-06T11:49:47.060Z,51.40
2018-09-06T11:52:15.572Z,48.33
2018-09-06T11:54:44.141Z,43.93
2018-09-06T11:57:12.912Z,56.60
2018-09-06T11:59:41.393Z,49.87
2018-09-06T12:02:09.961Z,52.73
2018-09-06T12:04:38.450Z,49.20
2018-09-06T12:07:06.928Z,48.40
2018-09-06T12:09:35.638Z,51.83
2018-09-06T12:12:04.169Z,49.80
2018-09-06T12:14:32.648Z,49.90
2018-09-06T12:17:01.171Z,45.30
2018-09-06T12:19:29.730Z,51.37
2018-09-06T12:21:58.296Z,52.03
2018-09-06T12:24:26.844Z,64.70
2018-09-06T12:26:55.427Z,50.00
2018-09-06T12:29:24.399Z,50.53
2018-09-06T12:31:53.032Z,50.57
2018-09-06T12:34:21.596Z,52.10
2018-09-06T12:36:50.109Z,53.13
2018-09-06T12:39:18.841Z,52.10
2018-09-06T12:41:47.433Z,57.63
2018-09-06T12:44:15.962Z,56.67
2018-09-06T12:46:44.497Z,52.63
2018-09-06T12:49:13.130Z,52.60
2018-09-06T12:51:41.644Z,48.53
2018-09-06T12:54:10.183Z,54.40
2018-09-06T12:56:38.824Z,48.13
2018-09-06T12:59:07.305Z,47.60
2018-09-06T13:01:35.806Z,52.53
2018-09-06T13:04:04.323Z,51.70
2018-09-06T13:06:32.804Z,45.77
2018-09-06T13:09:01.318Z,48.30
2018-09-06T13:11:29.924Z,48.43
2018-09-06T13:13:58.454Z,45.73
2018-09-06T13:16:26.981Z,41.63
2018-09-06T13:18:55.509Z,43.87
2018-09-06T13:21:24.197Z,51.33
2018-09-06T13:23:52.994Z,46.60
2018-09-06T13:26:21.488Z,39.43
2018-09-06T13:28:50.041Z,43.83
2018-09-06T13:31:19.132Z,48.50
2018-09-06T13:33:47.778Z,41.80
2018-09-06T13:36:16.323Z,43.87
2018-09-06T13:38:44.857Z,45.83
2018-09-06T13:41:13.411Z,45.23
2018-09-06T13:43:41.906Z,46.53
2018-09-06T13:46:10.478Z,41.10
2018-09-06T13:48:38.992Z,46.47
2018-09-06T13:51:07.524Z,48.43
2018-09-06T13:53:36.062Z,40.03
2018-09-06T13:56:04.627Z,46.93
2018-09-06T13:58:33.199Z,46.47
2018-09-06T14:01:03.950Z,41.73
2018-09-06T14:03:36.377Z,44.03
2018-09-06T14:06:07.719Z,42.20
2018-09-06T14:08:36.320Z,39.23
2018-09-06T14:11:07.559Z,41.93
2018-09-06T14:13:36.043Z,39.30
2018-09-06T14:16:06.297Z,42.77
2018-09-06T14:18:34.824Z,38.47
2018-09-06T14:21:03.329Z,42.87
2018-09-06T14:23:32.793Z,37.30
2018-09-06T14:26:01.277Z,45.70
2018-09-06T14:28:29.763Z,38.50
2018-09-06T14:30:58.301Z,40.10
2018-09-06T14:33:26.842Z,49.90
2018-09-06T14:35:55.486Z,41.87
2018-09-06T14:38:24.073Z,47.30
2018-09-06T14:40:52.643Z,43.63
2018-09-06T14:43:21.294Z,46.07
2018-09-06T14:45:49.948Z,41.47
2018-09-06T14:48:18.465Z,44.37
2018-09-06T14:50:46.970Z,45.03
2018-09-06T14:53:15.469Z,47.80
2018-09-06T14:55:44.105Z,44.87
2018-09-06T14:58:12.647Z,50.67
2018-09-06T15:00:41.870Z,27.47
2018-09-06T15:03:10.471Z,18.90
2018-09-06T15:05:39.002Z,22.00
2018-09-06T15:08:07.983Z,24.43
2018-09-06T15:10:36.723Z,23.63
2018-09-06T15:13:05.567Z,23.43
2018-09-06T15:15:34.133Z,27.17
2018-09-06T15:18:02.623Z,24.03
2018-09-06T15:20:31.220Z,26.47
2018-09-06T15:22:59.729Z,23.03
2018-09-06T15:25:28.374Z,24.37
2018-09-06T15:27:57.031Z,24.93
2018-09-06T15:30:25.682Z,21.60
2018-09-06T15:32:54.440Z,19.73
2018-09-06T15:35:24.231Z,26.27
2018-09-06T15:37:52.850Z,25.73
2018-09-06T15:40:21.485Z,26.93
2018-09-06T15:42:50.001Z,22.23
2018-09-06T15:45:18.498Z,24.53
2018-09-06T15:47:47.066Z,24.97
2018-09-06T15:50:15.582Z,22.40
2018-09-06T15:52:44.175Z,23.33
2018-09-06T15:55:14.415Z,20.40
2018-09-06T15:57:42.996Z,27.80
2018-09-06T16:00:11.873Z,23.60
2018-09-06T16:02:40.418Z,21.07
2018-09-06T16:05:08.923Z,23.13
2018-09-06T16:07:37.397Z,23.40
2018-09-06T16:10:05.970Z,23.27
2018-09-06T16:12:34.615Z,27.60
2018-09-06T16:15:03.115Z,25.80
2018-09-06T16:17:31.617Z,25.33
2018-09-06T16:20:00.262Z,28.03
2018-09-06T16:22:28.939Z,25.10
2018-09-06T16:24:57.607Z,24.97
2018-09-06T16:27:26.176Z,24.60
2018-09-06T16:29:54.858Z,28.73
2018-09-06T16:32:23.506Z,28.90
2018-09-06T16:34:52.010Z,29.47
2018-09-06T16:37:20.561Z,27.67
2018-09-06T16:39:49.059Z,29.70
2018-09-06T16:42:17.522Z,31.87
2018-09-06T16:44:45.980Z,31.40
2018-09-06T16:47:14.528Z,32.10
2018-09-06T16:49:43.634Z,33.00
2018-09-06T16:52:12.511Z,34.37
2018-09-06T16:54:41.922Z,30.90
2018-09-06T16:57:11.881Z,31.47
2018-09-06T16:59:43.180Z,30.13
2018-09-06T17:02:14.799Z,32.23
2018-09-06T17:04:43.415Z,31.80
2018-09-06T17:07:11.903Z,34.03
2018-09-06T17:09:40.348Z,34.83
2018-09-06T17:12:08.842Z,33.90
2018-09-06T17:14:37.381Z,35.33
2018-09-06T17:17:06.143Z,32.87
2018-09-06T17:19:34.637Z,36.00
2018-09-06T17:22:03.144Z,36.90
2018-09-06T17:24:31.657Z,34.33
2018-09-06T17:27:00.180Z,32.70
2018-09-06T17:29:28.670Z,30.30
2018-09-06T17:31:57.243Z,34.10
2018-09-06T17:34:25.826Z,37.27
2018-09-06T17:36:54.440Z,43.80
2018-09-06T17:39:22.991Z,31.77
2018-09-06T17:41:51.444Z,33.17
2018-09-06T17:44:19.885Z,34.80
2018-09-06T17:46:48.374Z,35.07
2018-09-06T17:49:16.906Z,35.40
2018-09-06T17:51:45.399Z,38.73
2018-09-06T17:54:13.866Z,38.03
2018-09-06T17:56:42.342Z,34.60
2018-09-06T17:59:10.857Z,39.70
2018-09-06T18:01:40.589Z,39.57
2018-09-06T18:04:09.162Z,40.30
2018-09-06T18:06:37.755Z,37.53
2018-09-06T18:09:09.609Z,37.40
2018-09-06T18:11:38.358Z,36.57
2018-09-06T18:14:06.937Z,38.00
2018-09-06T18:16:35.423Z,35.87
2018-09-06T18:19:03.954Z,39.10
2018-09-06T18:21:32.453Z,27.63
2018-09-06T18:24:00.974Z,28.77
2018-09-06T18:26:29.478Z,24.93
2018-09-06T18:28:58.198Z,23.20
2018-09-06T18:31:26.752Z,25.93
2018-09-06T18:33:55.288Z,20.57
2018-09-06T18:36:23.913Z,19.70
2018-09-06T18:38:52.402Z,19.83
2018-09-06T18:41:20.890Z,19.33
2018-09-06T18:43:49.369Z,19.17
2018-09-06T18:46:17.895Z,16.20
2018-09-06T18:48:46.371Z,15.67
2018-09-06T18:51:14.889Z,14.70
2018-09-06T18:53:43.500Z,15.93
2018-09-06T18:56:12.045Z,14.53
2018-09-06T18:58:40.562Z,15.63
2018-09-06T19:01:09.059Z,15.27
2018-09-06T19:03:37.656Z,17.10
2018-09-06T19:06:06.308Z,16.77
2018-09-06T19:08:34.851Z,15.57
2018-09-06T19:11:03.352Z,14.47
2018-09-06T19:13:31.829Z,15.13
2018-09-06T19:16:00.278Z,18.20
2018-09-06T19:18:28.932Z,16.50
2018-09-06T19:20:57.511Z,17.03
2018-09-06T19:23:26.204Z,17.70
2018-09-06T19:25:55.084Z,16.90
2018-09-06T19:28:23.591Z,16.53
2018-09-06T19:30:52.094Z,17.27
2018-09-06T19:33:20.537Z,18.73
2018-09-06T19:35:49.028Z,16.90
2018-09-06T19:38:17.502Z,21.57
2018-09-06T19:40:46.071Z,15.67
2018-09-06T19:43:14.560Z,18.70
2018-09-06T19:45:43.033Z,20.00
2018-09-06T19:48:11.511Z,16.93
2018-09-06T19:50:40.124Z,17.83
2018-09-06T19:53:08.634Z,16.33
2018-09-06T19:55:37.215Z,17.63
2018-09-06T19:58:05.793Z,15.97
2018-09-06T20:00:34.330Z,16.87
2018-09-06T20:03:02.876Z,16.13
2018-09-06T20:05:31.327Z,17.43
2018-09-06T20:07:59.933Z,16.53
2018-09-06T20:10:28.389Z,15.37
2018-09-06T20:12:56.944Z,16.93
2018-09-06T20:15:25.481Z,15.00
2018-09-06T20:17:54.003Z,17.67
2018-09-06T20:20:22.592Z,16.13
2018-09-06T20:22:51.078Z,16.50
2018-09-06T20:25:19.648Z,17.40
2018-09-06T20:27:48.210Z,16.00
2018-09-06T20:30:16.781Z,18.97
2018-09-06T20:32:45.345Z,16.23
2018-09-06T20:35:13.843Z,19.27
2018-09-06T20:37:42.414Z,16.40
2018-09-06T20:40:10.966Z,15.37
2018-09-06T20:42:39.503Z,13.97
2018-09-06T20:45:08.006Z,14.90
2018-09-06T20:47:36.505Z,15.07
2018-09-06T20:50:05.059Z,16.10
2018-09-06T20:52:33.596Z,15.63
2018-09-06T20:55:02.180Z,14.47
2018-09-06T20:57:30.730Z,18.10
2018-09-06T20:59:59.576Z,15.87
2018-09-06T21:02:32.382Z,15.97
2018-09-06T21:05:00.882Z,15.07
2018-09-06T21:07:29.445Z,20.13
2018-09-06T21:09:58.078Z,16.00
2018-09-06T21:12:26.617Z,18.10
2018-09-06T21:14:55.297Z,19.47
2018-09-06T21:17:23.855Z,15.60
2018-09-06T21:19:52.971Z,16.93
2018-09-06T21:22:21.717Z,15.67
2018-09-06T21:24:50.224Z,22.87
2018-09-06T21:27:18.732Z,18.20
2018-09-06T21:29:50.203Z,15.83
2018-09-06T21:32:19.350Z,18.27
2018-09-06T21:34:47.882Z,17.20
2018-09-06T21:37:16.401Z,18.90
2018-09-06T21:39:44.914Z,18.67
2018-09-06T21:42:13.505Z,20.93
2018-09-06T21:44:41.978Z,19.73
2018-09-06T21:47:10.476Z,20.60
2018-09-06T21:49:39.033Z,20.13
2018-09-06T21:52:07.550Z,18.00
2018-09-06T21:54:36.128Z,18.63
2018-09-06T21:57:04.743Z,27.03
2018-09-06T21:59:33.269Z,19.77
2018-09-06T22:02:01.861Z,19.00
2018-09-06T22:04:30.413Z,22.83
2018-09-06T22:06:58.983Z,18.03
2018-09-06T22:09:28.151Z,18.80
2018-09-06T22:11:56.702Z,21.90
2018-09-06T22:14:25.318Z,23.60
2018-09-06T22:16:53.861Z,24.23
2018-09-06T22:19:22.357Z,22.40
2018-09-06T22:21:50.865Z,23.30
2018-09-06T22:24:19.337Z,19.67
2018-09-06T22:26:47.870Z,23.07
2018-09-06T22:29:16.352Z,21.50
2018-09-06T22:31:44.865Z,21.53
2018-09-06T22:34:13.380Z,22.00
2018-09-06T22:36:41.933Z,20.27
2018-09-06T22:39:10.897Z,19.33
2018-09-06T22:41:39.467Z,24.83
2018-09-06T22:44:08.134Z,20.30
2018-09-06T22:46:36.680Z,18.87
2018-09-06T22:49:05.557Z,19.57
2018-09-06T22:51:34.041Z,19.63
2018-09-06T22:54:02.613Z,19.10
2018-09-06T22:56:31.122Z,21.37
2018-09-06T22:58:59.621Z,16.73
2018-09-06T23:01:28.119Z,17.93
2018-09-06T23:03:56.678Z,21.60
2018-09-06T23:06:25.716Z,18.67
2018-09-06T23:08:54.232Z,18.90
2018-09-06T23:11:22.696Z,18.63
2018-09-06T23:13:51.190Z,22.60
2018-09-06T23:16:19.657Z,22.50
2018-09-06T23:18:48.209Z,16.67
2018-09-06T23:21:16.719Z,19.90
2018-09-06T23:23:45.258Z,18.80
2018-09-06T23:26:13.769Z,19.43
2018-09-06T23:28:42.225Z,17.93
2018-09-06T23:31:10.757Z,18.60
2018-09-06T23:33:39.282Z,18.00
2018-09-06T23:36:07.773Z,19.80
2018-09-06T23:38:36.248Z,16.30
2018-09-06T23:41:04.823Z,29.23
2018-09-06T23:43:33.399Z,18.27
2018-09-06T23:46:01.921Z,21.23
2018-09-06T23:48:30.664Z,15.60
2018-09-06T23:50:59.533Z,17.13
2018-09-06T23:53:28.815Z,19.43
2018-09-06T23:55:57.285Z,15.97
2018-09-06T23:58:26.290Z,16.07
